Time;durP1;ratioP1;P1;durP2;ratioP2;P2;SDS_P1;SDS_P2;PMS_P1;PMS_P2;Temp;Humidity;BMP_temperature;BMP_pressure;BME280_temperature;BME280_humidity;BME280_pressure;Samples;Min_cycle;Max_cycle;Signal;HPM_P1;HPM_P2
2022/11/16 00:01:13;;;;;;;4.13;3.88;;;8.90;99.90;;;;;;5066363;28;20203;-69
2022/11/16 00:03:41;;;;;;;3.70;3.50;;;8.90;99.90;;;;;;5065114;28;20267;-69
2022/11/16 00:06:09;;;;;;;4.70;4.30;;;8.90;99.90;;;;;;5069126;28;20198;-69
2022/11/16 00:08:39;;;;;;;3.60;3.38;;;8.80;99.90;;;;;;5063507;28;20696;-69
2022/11/16 00:11:08;;;;;;;3.92;3.63;;;8.80;99.90;;;;;;5065995;28;20257;-70
2022/11/16 00:13:36;;;;;;;4.07;3.78;;;8.80;99.90;;;;;;5103475;22;20288;-72
2022/11/16 00:16:05;;;;;;;4.35;4.05;;;8.80;99.90;;;;;;5043368;28;20213;-74
2022/11/16 00:18:34;;;;;;;4.43;4.13;;;8.80;99.90;;;;;;5046998;28;20214;-74
2022/11/16 00:21:05;;;;;;;4.53;4.22;;;8.80;99.90;;;;;;5047811;28;20552;-73
2022/11/16 00:23:35;;;;;;;5.10;4.68;;;8.80;99.90;;;;;;5043264;28;20239;-73
2022/11/16 00:26:05;;;;;;;4.35;3.95;;;8.70;99.90;;;;;;5046738;28;20218;-71
2022/11/16 00:28:32;;;;;;;4.72;4.43;;;8.70;99.90;;;;;;5038789;28;20295;-73
2022/11/16 00:31:00;;;;;;;4.25;3.95;;;8.70;99.90;;;;;;5044821;28;20199;-73
2022/11/16 00:33:27;;;;;;;4.22;3.92;;;8.70;99.90;;;;;;5043167;28;20223;-73
2022/11/16 00:35:56;;;;;;;4.45;4.15;;;8.70;99.90;;;;;;5043943;28;20195;-73
2022/11/16 00:38:24;;;;;;;4.32;4.03;;;8.70;99.90;;;;;;5043217;28;20758;-72
2022/11/16 00:40:52;;;;;;;4.57;4.15;;;8.70;99.90;;;;;;5044220;28;20195;-73
2022/11/16 00:43:19;;;;;;;4.30;4.00;;;8.70;99.90;;;;;;5050628;28;20219;-73
2022/11/16 00:45:46;;;;;;;3.80;3.60;;;8.70;99.90;;;;;;5048099;28;20195;-73
2022/11/16 00:48:13;;;;;;;4.32;4.03;;;8.70;99.90;;;;;;5043434;28;20709;-72
2022/11/16 00:50:41;;;;;;;4.53;4.13;;;8.70;99.90;;;;;;5047154;28;20195;-73
2022/11/16 00:53:13;;;;;;;4.57;4.28;;;8.70;99.90;;;;;;5044915;28;20222;-72
2022/11/16 00:55:40;;;;;;;4.30;4.00;;;8.70;99.90;;;;;;5046405;28;20202;-73
2022/11/16 00:58:08;;;;;;;4.10;3.80;;;8.70;99.90;;;;;;5045782;28;20215;-73
2022/11/16 01:00:37;;;;;;;4.45;4.15;;;8.70;99.90;;;;;;5044445;28;20203;-73
2022/11/16 01:03:05;;;;;;;3.85;3.40;;;8.70;99.90;;;;;;5046983;28;20222;-73
2022/11/16 01:05:33;;;;;;;4.45;4.15;;;8.60;99.90;;;;;;5031297;28;20695;-74
2022/11/16 01:08:00;;;;;;;4.75;4.45;;;8.70;99.90;;;;;;5045634;28;20219;-74
2022/11/16 01:10:29;;;;;;;4.75;4.45;;;8.70;99.90;;;;;;5043416;28;20672;-74
2022/11/16 01:12:56;;;;;;;4.25;3.95;;;8.60;99.90;;;;;;5042360;28;20223;-73
2022/11/16 01:15:25;;;;;;;5.13;4.75;;;8.60;99.90;;;;;;5029542;28;20289;-73
2022/11/16 01:17:54;;;;;;;5.28;4.88;;;8.60;99.90;;;;;;5044849;28;20221;-73
2022/11/16 01:20:23;;;;;;;4.60;4.30;;;8.60;99.90;;;;;;5046058;28;21137;-74
2022/11/16 01:22:51;;;;;;;4.93;4.55;;;8.60;99.90;;;;;;5042873;28;20218;-73
2022/11/16 01:25:18;;;;;;;4.38;4.07;;;8.50;99.90;;;;;;5027415;28;20570;-73
2022/11/16 01:27:47;;;;;;;5.13;4.82;;;8.50;99.90;;;;;;5046466;28;20219;-72
2022/11/16 01:30:16;;;;;;;4.78;4.47;;;8.60;99.90;;;;;;5046075;28;20210;-72
2022/11/16 01:32:43;;;;;;;5.00;4.60;;;8.60;99.90;;;;;;5047288;28;20270;-71
2022/11/16 01:35:14;;;;;;;4.65;4.35;;;8.60;99.90;;;;;;5050030;28;20253;-71
2022/11/16 01:37:41;;;;;;;4.85;4.45;;;8.50;99.90;;;;;;5048002;28;20218;-72
2022/11/16 01:40:09;;;;;;;4.60;4.30;;;8.60;99.90;;;;;;5047365;28;20191;-72
2022/11/16 01:42:37;;;;;;;4.78;4.47;;;8.60;99.90;;;;;;5044057;28;20211;-72
2022/11/16 01:45:18;;;;;;;5.82;5.03;;;8.60;99.90;;;;;;5046696;28;20201;-72
2022/11/16 01:47:46;;;;;;;5.45;5.00;;;8.60;99.90;;;;;;5041776;28;20226;-72
2022/11/16 01:50:16;;;;;;;5.22;4.82;;;8.50;99.90;;;;;;5046304;28;20199;-71
2022/11/16 01:52:49;;;;;;;6.18;5.68;;;8.50;99.90;;;;;;5045886;28;20703;-72
2022/11/16 01:55:16;;;;;;;5.03;4.63;;;8.50;99.90;;;;;;5048960;28;20202;-72
2022/11/16 01:57:45;;;;;;;5.53;5.10;;;8.50;99.90;;;;;;5043850;28;20230;-72
2022/11/16 02:00:17;;;;;;;5.13;4.72;;;8.50;99.90;;;;;;5029509;28;20210;-72
2022/11/16 02:02:45;;;;;;;5.95;5.38;;;8.50;99.90;;;;;;5042940;28;20227;-72
2022/11/16 02:05:16;;;;;;;5.32;4.93;;;8.50;99.90;;;;;;5045692;28;20729;-72
2022/11/16 02:11:19;;;;;;;5.75;5.25;;;8.50;99.90;;;;;;5043199;28;20229;-72
2022/11/16 02:13:55;;;;;;;6.07;5.57;;;8.40;99.90;;;;;;5046550;28;20223;-71
2022/11/16 02:16:32;;;;;;;6.30;5.80;;;8.40;99.90;;;;;;5030813;28;20199;-72
2022/11/16 02:19:09;;;;;;;6.07;5.55;;;8.30;99.90;;;;;;5037649;28;20230;-72
2022/11/16 02:21:40;;;;;;;6.20;5.70;;;8.20;99.90;;;;;;5034185;28;20214;-73
2022/11/16 02:24:40;;;;;;;6.88;5.85;;;8.10;99.90;;;;;;5043528;28;20568;-72
2022/11/16 02:27:33;;;;;;;6.43;5.93;;;8.00;99.90;;;;;;5040941;28;20708;-72
2022/11/16 02:30:04;;;;;;;6.22;5.72;;;8.00;99.90;;;;;;5041268;28;20261;-72
2022/11/16 02:32:36;;;;;;;8.15;6.07;;;8.00;99.90;;;;;;5039140;28;20228;-72
2022/11/16 02:35:08;;;;;;;6.18;5.68;;;8.00;99.90;;;;;;5049126;28;20199;-72
2022/11/16 02:37:39;;;;;;;6.05;5.65;;;8.00;99.90;;;;;;5025210;28;20219;-72
2022/11/16 02:40:11;;;;;;;5.95;5.50;;;8.00;99.90;;;;;;5042934;28;20202;-73
2022/11/16 02:42:42;;;;;;;5.88;5.28;;;8.10;99.90;;;;;;5044216;28;20250;-71
2022/11/16 02:45:17;;;;;;;5.50;5.00;;;8.10;99.90;;;;;;5045243;28;20199;-73
2022/11/16 02:47:47;;;;;;;5.85;5.35;;;8.10;99.90;;;;;;5041303;28;20301;-72
2022/11/16 02:50:18;;;;;;;5.90;5.40;;;8.20;99.90;;;;;;5037179;28;20569;-73
2022/11/16 02:52:45;;;;;;;5.68;5.28;;;8.20;99.90;;;;;;5025835;28;20703;-73
2022/11/16 02:55:13;;;;;;;5.55;5.15;;;8.30;99.90;;;;;;5045185;28;20261;-73
2022/11/16 02:57:50;;;;;;;5.55;5.15;;;8.30;99.90;;;;;;5044305;28;20217;-73
2022/11/16 03:00:23;;;;;;;5.47;5.10;;;8.30;99.90;;;;;;5041720;28;20200;-73
2022/11/16 03:03:10;;;;;;;6.07;5.68;;;8.30;99.90;;;;;;5042274;28;20226;-73
2022/11/16 03:05:41;;;;;;;6.70;6.18;;;8.30;99.90;;;;;;5038657;28;20221;-73
2022/11/16 03:08:16;;;;;;;6.90;6.32;;;8.30;99.90;;;;;;5043640;28;20223;-73
2022/11/16 03:13:37;;;;;;;6.78;6.20;;;8.20;99.90;;;;;;5043045;28;20237;-73
2022/11/16 03:16:12;;;;;;;7.38;6.68;;;8.20;99.90;;;;;;5044370;28;20247;-73
2022/11/16 03:18:40;;;;;;;7.20;6.60;;;8.20;99.90;;;;;;5045237;28;20226;-73
2022/11/16 03:21:13;;;;;;;6.72;6.05;;;8.20;99.90;;;;;;5041455;28;20227;-73
2022/11/16 03:23:41;;;;;;;6.50;6.00;;;8.10;99.90;;;;;;5042073;28;20214;-72
2022/11/16 03:26:11;;;;;;;6.43;5.93;;;8.10;99.90;;;;;;5043079;28;20203;-72
2022/11/16 03:28:47;;;;;;;6.88;6.35;;;8.10;99.90;;;;;;5040634;28;20611;-72
2022/11/16 03:31:24;;;;;;;6.25;5.72;;;8.10;99.90;;;;;;5039479;28;20202;-73
2022/11/16 03:33:55;;;;;;;5.95;5.45;;;8.10;99.90;;;;;;5045831;28;20218;-72
2022/11/16 03:36:27;;;;;;;6.30;5.72;;;8.10;99.90;;;;;;5041059;28;20219;-72
2022/11/16 03:38:56;;;;;;;7.00;6.40;;;8.20;99.90;;;;;;5040787;28;20242;-73
2022/11/16 03:41:26;;;;;;;6.28;5.78;;;8.20;99.90;;;;;;5041892;28;20210;-73
2022/11/16 03:43:55;;;;;;;5.85;5.43;;;8.10;99.90;;;;;;5026201;28;20225;-73
2022/11/16 03:46:23;;;;;;;5.97;5.47;;;8.10;99.90;;;;;;5046624;28;20714;-72
2022/11/16 03:48:57;;;;;;;6.15;5.65;;;8.10;99.90;;;;;;5044173;28;20222;-72
2022/11/16 03:51:25;;;;;;;8.07;7.30;;;8.10;99.90;;;;;;5040751;28;20330;-73
2022/11/16 03:53:52;;;;;;;7.15;6.55;;;8.10;99.90;;;;;;5025365;28;20222;-71
2022/11/16 03:56:20;;;;;;;7.53;6.93;;;8.00;99.90;;;;;;5043277;28;20207;-73
2022/11/16 03:58:47;;;;;;;6.70;6.10;;;8.00;99.90;;;;;;5026361;28;20218;-73
2022/11/16 04:01:15;;;;;;;6.63;6.13;;;8.00;99.90;;;;;;5042000;28;20202;-72
2022/11/16 04:03:44;;;;;;;5.95;5.55;;;8.00;99.90;;;;;;5041729;28;20210;-74
2022/11/16 04:25:41;;;;;;;5.82;5.43;;;8.10;99.90;;;;;;5045884;28;20680;-74
2022/11/16 04:28:15;;;;;;;6.47;5.97;;;8.20;99.90;;;;;;5049639;28;20723;-73
2022/11/16 04:39:01;;;;;;;7.35;6.68;;;8.10;99.90;;;;;;5045376;28;20268;-74
2022/11/16 04:44:14;;;;;;;7.43;6.82;;;7.90;99.90;;;;;;5042703;28;20346;-73
2022/11/16 04:49:25;;;;;;;7.38;6.78;;;7.90;99.90;;;;;;5049631;28;20202;-73
2022/11/16 04:51:54;;;;;;;7.07;6.47;;;7.80;99.90;;;;;;5048832;28;20222;-74
2022/11/16 04:54:21;;;;;;;7.65;7.00;;;7.80;99.90;;;;;;5049595;28;20233;-74
2022/11/16 04:56:49;;;;;;;7.85;7.15;;;7.80;99.90;;;;;;5040103;28;20210;-72
2022/11/16 04:59:16;;;;;;;8.40;7.70;;;7.80;99.90;;;;;;5045127;28;20668;-73
2022/11/16 05:04:41;;;;;;;8.70;7.90;;;7.80;99.90;;;;;;4962959;28;20202;-71
2022/11/16 05:07:12;;;;;;;8.30;7.45;;;7.90;99.90;;;;;;5020374;28;20274;-73
2022/11/16 05:09:41;;;;;;;7.57;6.90;;;7.90;99.90;;;;;;5042670;28;20861;-73
2022/11/16 05:12:09;;;;;;;7.15;6.55;;;7.90;99.90;;;;;;5044856;28;20429;-73
2022/11/16 05:14:36;;;;;;;7.47;6.78;;;7.90;99.90;;;;;;5045221;28;20222;-73
2022/11/16 05:17:04;;;;;;;6.55;5.95;;;8.00;99.90;;;;;;5041291;28;20592;-73
2022/11/16 05:22:17;;;;;;;7.13;6.53;;;8.00;99.90;;;;;;5043803;28;20370;-73
2022/11/16 05:24:44;;;;;;;7.75;7.05;;;8.00;99.90;;;;;;5043093;28;20206;-73
2022/11/16 05:27:15;;;;;;;8.60;7.90;;;8.00;99.90;;;;;;5043063;28;20223;-73
2022/11/16 05:29:42;;;;;;;8.15;7.45;;;7.90;99.90;;;;;;5042120;28;20202;-73
2022/11/16 05:32:11;;;;;;;7.38;6.78;;;8.00;99.90;;;;;;5040174;28;20247;-73
2022/11/16 05:34:39;;;;;;;8.82;8.07;;;8.00;99.90;;;;;;5043403;28;20219;-72
2022/11/16 05:37:07;;;;;;;8.65;7.95;;;8.00;99.90;;;;;;5103749;23;20221;-76
2022/11/16 05:39:36;;;;;;;8.82;8.13;;;8.00;99.90;;;;;;5110452;27;20223;-77
2022/11/16 05:42:03;;;;;;;8.55;7.72;;;8.00;99.90;;;;;;5112998;28;20212;-76
2022/11/16 05:44:30;;;;;;;7.38;6.78;;;8.00;99.90;;;;;;5107741;28;20221;-75
2022/11/16 05:46:57;;;;;;;7.45;6.78;;;8.00;99.90;;;;;;5109145;28;20239;-78
2022/11/16 05:49:25;;;;;;;8.27;7.50;;;8.00;99.90;;;;;;5107368;28;21748;-78
2022/11/16 05:51:52;;;;;;;8.95;8.15;;;8.00;99.90;;;;;;5103179;28;20221;-76
2022/11/16 05:54:22;;;;;;;9.30;8.45;;;8.00;99.90;;;;;;5106242;28;20713;-80
2022/11/16 05:56:51;;;;;;;8.65;7.88;;;8.00;99.90;;;;;;5105813;28;20225;-76
2022/11/16 05:59:20;;;;;;;8.80;7.90;;;8.00;99.90;;;;;;5108764;28;20280;-76
2022/11/16 06:01:48;;;;;;;8.13;7.43;;;8.00;99.90;;;;;;5107489;28;20196;-80
2022/11/16 06:04:15;;;;;;;8.07;7.28;;;8.10;99.90;;;;;;5105302;28;20498;-81
2022/11/16 06:06:43;;;;;;;7.95;7.30;;;8.10;99.90;;;;;;5106760;28;20227;-80
2022/11/16 06:09:11;;;;;;;8.32;7.63;;;8.10;99.90;;;;;;5107559;28;20208;-81
2022/11/16 06:11:38;;;;;;;7.15;6.55;;;8.10;99.90;;;;;;5101741;28;20288;-77
2022/11/16 06:14:08;;;;;;;8.02;7.35;;;8.10;99.90;;;;;;5118559;22;20193;-79
2022/11/16 06:16:35;;;;;;;8.20;7.50;;;8.10;99.90;;;;;;5080210;28;20213;-77
2022/11/16 06:19:03;;;;;;;9.15;8.35;;;8.10;99.90;;;;;;5086580;28;20205;-75
2022/11/16 06:21:30;;;;;;;7.97;7.20;;;8.10;99.90;;;;;;5092971;28;20190;-78
2022/11/16 06:23:57;;;;;;;8.23;7.60;;;8.10;99.90;;;;;;5094902;28;21209;-81
2022/11/16 06:26:24;;;;;;;8.65;7.93;;;8.00;99.90;;;;;;5089255;28;20217;-76
2022/11/16 06:28:53;;;;;;;8.38;7.68;;;8.00;99.90;;;;;;5078036;28;20230;-79
2022/11/16 06:31:22;;;;;;;8.60;7.90;;;7.90;99.90;;;;;;5101404;28;20189;-76
2022/11/16 06:33:49;;;;;;;8.27;7.57;;;7.90;99.90;;;;;;5089271;28;20222;-82
2022/11/16 06:36:16;;;;;;;7.07;6.47;;;7.90;99.90;;;;;;5096736;28;20224;-76
2022/11/16 06:38:44;;;;;;;7.53;6.82;;;7.90;99.90;;;;;;5084044;28;20214;-75
2022/11/16 06:41:11;;;;;;;7.35;6.65;;;7.90;99.90;;;;;;5086713;28;20204;-78
2022/11/16 06:43:39;;;;;;;7.32;6.75;;;8.00;99.90;;;;;;5084721;28;20228;-77
2022/11/16 06:46:06;;;;;;;7.15;6.55;;;8.00;99.90;;;;;;5086468;28;20214;-76
2022/11/16 06:48:35;;;;;;;8.00;7.20;;;8.10;99.90;;;;;;5085492;28;20213;-75
2022/11/16 06:51:02;;;;;;;7.97;7.28;;;8.10;99.90;;;;;;5084950;28;20193;-76
2022/11/16 06:53:30;;;;;;;7.35;6.68;;;8.10;99.90;;;;;;5091145;28;20586;-76
2022/11/16 06:56:02;;;;;;;7.75;7.05;;;8.20;99.90;;;;;;5095005;28;20612;-74
2022/11/16 06:58:30;;;;;;;7.70;7.10;;;8.20;99.90;;;;;;5085593;28;20952;-75
2022/11/16 07:00:59;;;;;;;7.47;6.60;;;8.20;99.90;;;;;;5086781;28;20190;-75
2022/11/16 07:03:26;;;;;;;8.00;7.30;;;8.20;99.90;;;;;;5084021;28;20209;-75
2022/11/16 07:05:55;;;;;;;8.32;7.63;;;8.20;99.90;;;;;;5086395;28;20203;-78
2022/11/16 07:08:22;;;;;;;7.40;6.75;;;8.20;99.90;;;;;;5083495;28;20233;-75
2022/11/16 07:10:49;;;;;;;7.90;7.30;;;8.20;99.90;;;;;;5087484;28;20193;-78
2022/11/16 07:13:16;;;;;;;6.70;6.20;;;8.20;99.90;;;;;;5063103;28;20213;-78
2022/11/16 07:15:45;;;;;;;6.15;5.65;;;8.30;99.90;;;;;;5060080;28;20205;-77
2022/11/16 07:18:12;;;;;;;7.13;6.53;;;8.30;99.90;;;;;;5064618;28;20225;-77
2022/11/16 07:20:40;;;;;;;7.43;6.82;;;8.30;99.90;;;;;;5087475;28;20192;-78
2022/11/16 07:23:09;;;;;;;7.68;7.07;;;8.30;99.90;;;;;;5082325;28;20243;-75
2022/11/16 07:25:36;;;;;;;7.38;6.78;;;8.30;99.90;;;;;;5088596;28;20197;-75
2022/11/16 07:28:05;;;;;;;8.68;7.88;;;8.20;99.90;;;;;;5089360;28;20290;-76
2022/11/16 07:30:32;;;;;;;7.38;6.72;;;8.20;99.90;;;;;;5094212;28;20682;-75
2022/11/16 07:33:00;;;;;;;7.30;6.70;;;8.20;99.90;;;;;;5085485;28;20221;-75
2022/11/16 07:35:27;;;;;;;8.43;7.60;;;8.30;99.90;;;;;;5088001;28;20229;-76
2022/11/16 07:37:54;;;;;;;7.00;6.40;;;8.30;99.90;;;;;;5067632;28;20229;-77
2022/11/16 07:40:23;;;;;;;6.85;6.35;;;8.40;99.90;;;;;;5084527;28;20201;-77
2022/11/16 07:42:50;;;;;;;7.25;6.55;;;8.40;99.90;;;;;;5084282;28;20217;-75
2022/11/16 07:45:18;;;;;;;7.00;6.40;;;8.40;99.90;;;;;;5084467;28;20197;-77
2022/11/16 07:47:46;;;;;;;6.70;6.20;;;8.50;99.90;;;;;;5083155;28;20780;-75
2022/11/16 07:50:14;;;;;;;6.95;6.35;;;8.50;99.90;;;;;;5085218;28;20205;-75
2022/11/16 07:52:45;;;;;;;7.18;6.60;;;8.50;99.90;;;;;;5083233;28;20304;-76
2022/11/16 07:55:12;;;;;;;6.00;5.50;;;8.60;99.90;;;;;;5085045;28;20227;-78
2022/11/16 07:57:41;;;;;;;6.97;6.47;;;8.60;99.90;;;;;;5081336;28;20225;-76
2022/11/16 08:00:10;;;;;;;6.85;6.25;;;8.60;99.90;;;;;;5081465;28;20202;-76
2022/11/16 08:02:37;;;;;;;6.43;5.90;;;8.60;99.90;;;;;;5081962;28;20221;-77
2022/11/16 08:05:05;;;;;;;6.80;6.30;;;8.60;99.90;;;;;;5069196;28;20196;-76
2022/11/16 08:07:34;;;;;;;6.85;6.25;;;8.60;99.90;;;;;;5082451;28;21052;-78
2022/11/16 08:10:01;;;;;;;7.32;6.72;;;8.60;99.90;;;;;;5086412;28;20292;-77
2022/11/16 08:12:29;;;;;;;7.90;7.30;;;8.60;99.90;;;;;;5083424;28;20210;-75
2022/11/16 08:14:58;;;;;;;59.75;9.23;;;8.60;99.90;;;;;;5084980;28;20225;-77
2022/11/16 08:17:25;;;;;;;95.63;11.65;;;8.60;99.90;;;;;;5084676;28;20221;-75
2022/11/16 08:19:53;;;;;;;16.88;7.93;;;8.60;99.90;;;;;;5083679;28;20601;-76
2022/11/16 08:22:20;;;;;;;10.63;9.32;;;8.50;99.90;;;;;;5083584;28;20217;-75
2022/11/16 08:24:48;;;;;;;14.40;9.25;;;8.40;99.90;;;;;;5084998;28;20189;-78
2022/11/16 08:27:16;;;;;;;11.52;10.20;;;8.40;99.90;;;;;;5080059;28;20602;-75
2022/11/16 08:29:44;;;;;;;9.35;8.63;;;8.30;99.90;;;;;;5080348;28;20208;-76
2022/11/16 08:32:13;;;;;;;9.45;8.65;;;8.30;99.90;;;;;;5065807;28;20225;-75
2022/11/16 08:34:40;;;;;;;8.18;7.43;;;8.30;99.90;;;;;;5089370;28;20733;-75
2022/11/16 08:37:07;;;;;;;8.88;7.97;;;8.30;99.90;;;;;;5086716;28;20228;-76
2022/11/16 08:39:35;;;;;;;9.02;8.32;;;8.40;99.90;;;;;;5091023;28;20193;-74
2022/11/16 08:42:02;;;;;;;7.95;7.35;;;8.40;99.90;;;;;;5086987;28;20221;-74
2022/11/16 08:44:29;;;;;;;10.80;8.55;;;8.50;99.90;;;;;;5085576;28;20487;-78
2022/11/16 08:46:56;;;;;;;8.73;7.93;;;8.50;99.90;;;;;;5068189;28;20214;-79
2022/11/16 08:49:25;;;;;;;8.65;7.85;;;8.60;99.90;;;;;;5092225;28;20874;-76
2022/11/16 08:51:52;;;;;;;238.25;18.73;;;8.60;99.90;;;;;;5096354;28;20279;-75
2022/11/16 08:54:20;;;;;;;11.43;7.57;;;8.60;99.90;;;;;;5091425;28;20756;-76
2022/11/16 08:56:48;;;;;;;8.40;7.70;;;8.60;99.90;;;;;;5080219;28;20221;-77
2022/11/16 08:59:15;;;;;;;120.32;12.15;;;8.60;99.90;;;;;;5084744;28;20651;-74
2022/11/16 09:01:42;;;;;;;7.65;7.05;;;8.50;99.90;;;;;;5090201;28;20194;-74
2022/11/16 09:04:09;;;;;;;14.70;8.75;;;8.50;99.90;;;;;;5091181;28;20270;-75
2022/11/16 09:06:38;;;;;;;8.13;7.38;;;8.40;99.90;;;;;;5086311;28;20214;-73
2022/11/16 09:09:06;;;;;;;8.60;7.75;;;8.40;99.90;;;;;;5083254;28;20581;-73
2022/11/16 09:11:33;;;;;;;7.70;7.10;;;8.50;99.90;;;;;;5086609;28;20629;-75
2022/11/16 09:14:00;;;;;;;7.75;7.15;;;8.50;99.90;;;;;;5088596;28;20226;-75
2022/11/16 09:16:28;;;;;;;8.05;7.45;;;8.50;99.90;;;;;;5086164;28;20217;-75
2022/11/16 09:18:55;;;;;;;7.70;7.10;;;8.50;99.90;;;;;;5087007;28;20313;-75
2022/11/16 09:21:24;;;;;;;7.80;7.15;;;8.60;99.90;;;;;;5067423;28;20204;-76
2022/11/16 09:23:55;;;;;;;12.23;11.10;;;8.80;99.90;;;;;;5086860;28;20218;-74
2022/11/16 09:26:22;;;;;;;9.63;8.82;;;8.90;99.90;;;;;;5086913;28;20214;-74
2022/11/16 09:28:56;;;;;;;9.85;8.95;;;9.10;99.90;;;;;;5084892;28;20213;-75
2022/11/16 09:31:26;;;;;;;9.13;8.43;;;9.30;99.90;;;;;;5087764;28;20198;-76
2022/11/16 09:33:53;;;;;;;8.95;8.15;;;9.40;99.90;;;;;;5085147;28;20298;-76
2022/11/16 09:36:20;;;;;;;9.00;7.95;;;9.50;99.90;;;;;;5066603;28;20694;-76
2022/11/16 09:38:48;;;;;;;8.27;7.68;;;9.70;99.90;;;;;;5084196;28;20224;-74
2022/11/16 09:41:32;;;;;;;9.23;8.27;;;9.90;99.90;;;;;;5080931;28;20209;-73
2022/11/16 09:44:06;;;;;;;8.30;7.63;;;10.10;99.90;;;;;;5090238;28;20255;-72
2022/11/16 09:46:38;;;;;;;7.57;6.97;;;10.20;99.90;;;;;;5084580;28;20225;-73
2022/11/16 09:49:13;;;;;;;7.45;6.85;;;10.20;99.90;;;;;;5085039;28;20899;-72
2022/11/16 09:51:43;;;;;;;7.68;7.07;;;10.20;99.90;;;;;;5079458;28;20197;-73
2022/11/16 09:54:16;;;;;;;7.22;6.63;;;10.20;99.90;;;;;;5085933;28;20660;-73
2022/11/16 09:56:48;;;;;;;7.53;6.93;;;10.20;99.90;;;;;;5067613;28;20225;-73
2022/11/16 09:59:22;;;;;;;7.68;6.97;;;10.10;99.90;;;;;;5068487;28;20200;-73
2022/11/16 10:01:54;;;;;;;7.40;6.70;;;10.00;99.90;;;;;;5085525;28;20238;-72
2022/11/16 10:04:35;;;;;;;12.40;9.98;;;9.90;99.90;;;;;;5066709;28;20196;-71
2022/11/16 10:07:08;;;;;;;9.95;8.98;;;9.80;99.90;;;;;;5087237;28;20227;-72
2022/11/16 10:09:37;;;;;;;7.70;7.10;;;9.70;99.90;;;;;;5086404;28;20274;-72
2022/11/16 10:12:16;;;;;;;7.50;6.90;;;9.70;99.90;;;;;;5085034;28;20216;-72
2022/11/16 10:15:19;;;;;;;8.50;7.80;;;9.70;99.90;;;;;;5086885;28;20241;-73
2022/11/16 10:18:09;;;;;;;10.60;8.43;;;9.80;99.90;;;;;;5087418;28;20694;-72
2022/11/16 10:20:52;;;;;;;10.43;9.52;;;9.90;99.90;;;;;;5090045;28;20194;-72
2022/11/16 10:23:29;;;;;;;9.23;8.40;;;9.90;99.90;;;;;;5084577;28;20217;-74
2022/11/16 10:26:03;;;;;;;9.57;8.77;;;9.70;99.90;;;;;;5087027;28;20193;-73
2022/11/16 10:28:49;;;;;;;9.32;8.52;;;9.60;99.90;;;;;;5081935;28;20229;-73
2022/11/16 10:31:21;;;;;;;9.23;8.43;;;9.50;99.90;;;;;;5086409;28;20189;-73
2022/11/16 10:33:55;;;;;;;8.07;7.28;;;9.40;99.90;;;;;;5095121;28;20773;-72
2022/11/16 10:36:29;;;;;;;10.23;9.00;;;9.40;99.90;;;;;;5085956;28;20225;-76
2022/11/16 10:39:12;;;;;;;9.50;8.68;;;9.50;99.90;;;;;;5087894;28;20211;-74
2022/11/16 10:41:43;;;;;;;9.57;8.68;;;9.50;99.90;;;;;;5085385;28;20202;-76
2022/11/16 10:44:19;;;;;;;9.57;8.68;;;9.50;99.90;;;;;;5088076;28;20200;-76
2022/11/16 10:46:56;;;;;;;8.50;7.78;;;9.50;99.90;;;;;;5073251;28;20216;-74
2022/11/16 10:49:32;;;;;;;8.77;7.97;;;9.40;99.90;;;;;;5090415;28;20205;-74
2022/11/16 10:52:00;;;;;;;8.35;7.60;;;9.30;99.90;;;;;;5089309;28;20229;-73
2022/11/16 10:54:27;;;;;;;7.75;7.03;;;9.20;99.90;;;;;;5070093;28;20200;-78
2022/11/16 10:57:03;;;;;;;7.60;7.00;;;9.20;99.90;;;;;;5090023;28;20221;-77
2022/11/16 10:59:47;;;;;;;8.43;7.65;;;9.30;99.90;;;;;;5076940;28;20201;-75
2022/11/16 11:02:34;;;;;;;8.25;7.55;;;9.40;99.90;;;;;;5084485;28;20705;-74
2022/11/16 11:05:16;;;;;;;7.75;7.05;;;9.50;99.90;;;;;;5087600;28;20194;-75
2022/11/16 11:07:46;;;;;;;7.53;6.93;;;9.60;99.90;;;;;;5092576;28;20225;-75
2022/11/16 11:10:30;;;;;;;8.10;7.40;;;9.80;99.90;;;;;;5099243;28;20201;-74
2022/11/16 11:13:22;;;;;;;8.07;7.47;;;10.00;99.90;;;;;;5070902;28;20702;-73
2022/11/16 11:15:52;;;;;;;8.32;7.63;;;10.30;99.90;;;;;;5081288;28;20228;-77
2022/11/16 11:18:28;;;;;;;9.05;8.30;;;10.70;99.90;;;;;;5085583;28;20221;-76
2022/11/16 11:21:09;;;;;;;9.45;8.45;;;11.10;99.90;;;;;;5089759;28;20201;-73
2022/11/16 11:23:43;;;;;;;8.25;7.55;;;11.70;99.90;;;;;;5085446;28;20225;-79
2022/11/16 11:26:35;;;;;;;7.65;7.05;;;12.20;99.90;;;;;;5086424;28;20217;-77
2022/11/16 11:29:08;;;;;;;7.10;6.40;;;12.90;99.90;;;;;;5083401;28;20225;-80
2022/11/16 11:31:44;;;;;;;7.05;6.43;;;13.80;99.90;;;;;;5081648;28;20985;-75
2022/11/16 11:34:18;;;;;;;6.82;6.25;;;14.70;99.90;;;;;;5084569;28;20208;-78
2022/11/16 11:36:49;;;;;;;6.35;5.75;;;14.80;99.90;;;;;;5089989;28;20887;-80
2022/11/16 11:39:33;;;;;;;6.18;5.65;;;14.90;99.90;;;;;;5095336;28;20202;-79
2022/11/16 11:42:21;;;;;;;5.90;5.50;;;15.10;99.90;;;;;;5087950;28;20704;-78
2022/11/16 11:44:55;;;;;;;5.80;5.30;;;15.20;99.90;;;;;;5084894;28;20190;-78
2022/11/16 11:47:46;;;;;;;5.55;5.05;;;15.20;99.90;;;;;;5090929;28;20317;-77
2022/11/16 11:50:17;;;;;;;5.63;5.18;;;15.10;99.90;;;;;;5086936;28;20683;-75
2022/11/16 11:52:55;;;;;;;5.82;5.32;;;14.90;99.90;;;;;;5083225;28;20255;-77
2022/11/16 11:55:22;;;;;;;6.15;5.65;;;14.80;99.90;;;;;;5086493;28;20231;-74
2022/11/16 11:57:53;;;;;;;7.25;6.63;;;14.80;99.90;;;;;;5091096;28;20217;-76
2022/11/16 12:00:20;;;;;;;5.70;5.20;;;14.90;99.90;;;;;;5092096;28;20253;-75
2022/11/16 12:03:24;;;;;;;6.40;5.80;;;14.80;99.90;;;;;;5069338;28;20225;-72
2022/11/16 12:06:17;;;;;;;6.70;6.20;;;14.80;99.90;;;;;;5080109;28;20185;-74
2022/11/16 12:09:09;;;;;;;6.40;5.80;;;14.90;99.90;;;;;;5085615;28;20252;-75
2022/11/16 12:11:51;;;;;;;7.32;6.72;;;14.50;99.90;;;;;;5078201;28;20217;-77
2022/11/16 12:14:33;;;;;;;7.05;6.45;;;14.60;99.90;;;;;;5081367;28;20214;-72
2022/11/16 12:17:07;;;;;;;7.75;7.05;;;14.50;99.90;;;;;;5081347;28;20232;-75
2022/11/16 12:19:58;;;;;;;7.25;6.47;;;14.30;99.90;;;;;;5083859;28;20193;-75
2022/11/16 12:22:46;;;;;;;7.55;6.85;;;13.90;99.90;;;;;;5076593;28;20249;-78
2022/11/16 12:25:23;;;;;;;8.30;7.50;;;13.40;99.90;;;;;;5083554;28;20735;-77
2022/11/16 12:28:05;;;;;;;9.60;8.57;;;13.00;99.90;;;;;;5083430;28;20213;-72
2022/11/16 12:30:38;;;;;;;9.15;8.25;;;12.90;99.90;;;;;;5087906;28;20193;-72
2022/11/16 12:33:20;;;;;;;7.70;7.03;;;12.80;99.90;;;;;;5087500;28;20932;-73
2022/11/16 12:36:00;;;;;;;8.02;7.32;;;12.70;99.90;;;;;;5074864;28;20213;-73
2022/11/16 12:38:44;;;;;;;7.88;7.28;;;12.80;99.90;;;;;;5090960;28;20279;-75
2022/11/16 12:41:57;;;;;;;8.23;7.45;;;12.80;99.90;;;;;;5093632;28;20204;-74
2022/11/16 12:44:32;;;;;;;7.65;6.93;;;12.80;99.90;;;;;;4994568;28;20681;-74
2022/11/16 12:47:08;;;;;;;7.53;6.82;;;12.90;99.90;;;;;;5075735;28;20228;-76
2022/11/16 12:50:06;;;;;;;9.02;6.90;;;13.00;99.90;;;;;;5094635;28;20197;-75
2022/11/16 12:52:56;;;;;;;8.55;7.65;;;13.10;99.90;;;;;;5099596;28;20593;-73
2022/11/16 12:55:33;;;;;;;6.20;5.70;;;13.10;99.90;;;;;;5095411;28;20314;-75
2022/11/16 12:58:10;;;;;;;6.03;5.47;;;13.30;99.90;;;;;;5095900;28;20225;-75
2022/11/16 13:00:56;;;;;;;6.20;5.68;;;13.60;99.90;;;;;;5092130;28;20201;-73
2022/11/16 13:03:33;;;;;;;5.80;5.40;;;13.70;99.90;;;;;;5091654;28;20588;-75
2022/11/16 13:06:03;;;;;;;6.28;5.78;;;13.80;99.90;;;;;;5090906;28;20291;-78
2022/11/16 13:08:44;;;;;;;6.03;5.55;;;13.80;99.90;;;;;;5093401;28;20213;-76
2022/11/16 13:11:18;;;;;;;5.57;5.18;;;13.90;99.90;;;;;;5074211;28;20665;-74
2022/11/16 13:13:47;;;;;;;5.50;5.00;;;13.90;99.90;;;;;;5086912;28;20228;-76
2022/11/16 13:16:16;;;;;;;5.63;5.03;;;13.90;99.90;;;;;;5091051;28;20227;-77
2022/11/16 13:18:45;;;;;;;6.78;6.28;;;13.70;99.90;;;;;;5096738;28;20217;-75
2022/11/16 13:21:22;;;;;;;5.65;5.22;;;13.50;99.90;;;;;;5091400;28;21067;-74
2022/11/16 13:23:59;;;;;;;6.13;5.63;;;13.50;99.90;;;;;;5086682;28;20220;-75
2022/11/16 13:26:34;;;;;;;7.00;6.40;;;13.50;99.90;;;;;;5090742;28;20860;-75
2022/11/16 13:29:09;;;;;;;6.22;5.63;;;13.30;99.90;;;;;;5095999;28;20239;-76
2022/11/16 13:31:43;;;;;;;5.63;5.22;;;13.20;99.90;;;;;;5088696;28;20200;-77
2022/11/16 13:34:18;;;;;;;5.63;5.22;;;13.30;99.90;;;;;;5094785;28;20247;-75
2022/11/16 13:36:46;;;;;;;5.85;5.38;;;13.30;99.90;;;;;;5089755;28;20742;-74
2022/11/16 13:39:19;;;;;;;5.68;5.18;;;13.20;99.90;;;;;;5065538;28;20210;-75
2022/11/16 13:41:50;;;;;;;5.85;5.35;;;13.20;99.90;;;;;;5086908;28;20208;-74
2022/11/16 13:44:27;;;;;;;7.93;5.53;;;13.30;99.90;;;;;;5093650;28;20193;-75
2022/11/16 13:46:58;;;;;;;5.35;4.95;;;13.20;99.90;;;;;;5088437;28;20593;-74
2022/11/16 13:49:33;;;;;;;5.72;5.15;;;13.30;99.90;;;;;;5093601;28;20204;-74
2022/11/16 13:52:03;;;;;;;8.30;5.82;;;13.20;99.90;;;;;;5091076;28;20774;-74
2022/11/16 13:54:36;;;;;;;5.95;5.45;;;12.90;99.90;;;;;;5058365;28;20712;-78
2022/11/16 13:57:18;;;;;;;5.43;5.03;;;12.60;99.90;;;;;;5096538;28;20232;-76
2022/11/16 13:59:47;;;;;;;5.82;5.32;;;12.40;99.90;;;;;;5092186;28;20198;-75
2022/11/16 14:02:32;;;;;;;4.88;4.53;;;12.30;99.90;;;;;;5095854;28;20224;-79